sensor_id;sensor_type;location;lat;lon;timestamp;pressure;altitude;pressure_sealevel;temperature;humidity
63395;BME280;49531;-34.520;150.798;2023-06-22T00:01:20;101032.31;;;15.40;49.65
63395;BME280;49531;-34.520;150.798;2023-06-22T00:03:49;101026.94;;;15.40;50.05
63395;BME280;49531;-34.520;150.798;2023-06-22T00:06:16;101030.66;;;15.39;50.21
63395;BME280;49531;-34.520;150.798;2023-06-22T00:08:44;101032.94;;;15.42;49.87
63395;BME280;49531;-34.520;150.798;2023-06-22T00:11:11;101029.81;;;15.45;49.73
63395;BME280;49531;-34.520;150.798;2023-06-22T00:13:38;101014.97;;;15.35;50.11
63395;BME280;49531;-34.520;150.798;2023-06-22T00:16:06;101025.63;;;15.49;49.84
63395;BME280;49531;-34.520;150.798;2023-06-22T00:18:33;101007.59;;;15.49;49.54
63395;BME280;49531;-34.520;150.798;2023-06-22T00:21:00;101009.66;;;15.54;49.55
63395;BME280;49531;-34.520;150.798;2023-06-22T00:23:28;101012.88;;;15.62;49.65
63395;BME280;49531;-34.520;150.798;2023-06-22T00:26:00;101006.47;;;15.63;49.43
63395;BME280;49531;-34.520;150.798;2023-06-22T00:28:27;101014.25;;;15.72;49.86
63395;BME280;49531;-34.520;150.798;2023-06-22T00:30:55;100999.81;;;15.66;49.14
63395;BME280;49531;-34.520;150.798;2023-06-22T00:33:22;101008.44;;;15.75;49.80
63395;BME280;49531;-34.520;150.798;2023-06-22T00:35:49;100997.06;;;15.73;50.14
63395;BME280;49531;-34.520;150.798;2023-06-22T00:38:19;100995.03;;;15.68;50.00
63395;BME280;49531;-34.520;150.798;2023-06-22T00:40:46;100992.66;;;15.78;50.56
63395;BME280;49531;-34.520;150.798;2023-06-22T00:43:13;100980.47;;;15.76;50.43
63395;BME280;49531;-34.520;150.798;2023-06-22T00:45:40;100967.22;;;15.74;50.80
63395;BME280;49531;-34.520;150.798;2023-06-22T00:48:08;100960.34;;;15.78;50.58
63395;BME280;49531;-34.520;150.798;2023-06-22T00:50:35;100973.53;;;15.86;49.98
63395;BME280;49531;-34.520;150.798;2023-06-22T00:53:05;100934.38;;;15.65;50.21
63395;BME280;49531;-34.520;150.798;2023-06-22T00:55:37;100942.47;;;15.84;51.20
63395;BME280;49531;-34.520;150.798;2023-06-22T00:58:06;100945.41;;;15.82;51.22
63395;BME280;49531;-34.520;150.798;2023-06-22T01:00:37;100945.16;;;15.84;51.61
63395;BME280;49531;-34.520;150.798;2023-06-22T01:03:04;100932.47;;;15.91;51.16
63395;BME280;49531;-34.520;150.798;2023-06-22T01:05:36;100932.69;;;15.89;51.23
63395;BME280;49531;-34.520;150.798;2023-06-22T01:11:00;100923.72;;;15.95;51.17
63395;BME280;49531;-34.520;150.798;2023-06-22T01:13:50;100924.31;;;15.97;50.95
63395;BME280;49531;-34.520;150.798;2023-06-22T01:16:27;100929.47;;;15.99;51.10
63395;BME280;49531;-34.520;150.798;2023-06-22T01:18:55;100923.25;;;15.98;51.13
63395;BME280;49531;-34.520;150.798;2023-06-22T01:21:24;100893.31;;;15.88;51.10
63395;BME280;49531;-34.520;150.798;2023-06-22T01:24:02;100898.09;;;16.05;51.58
63395;BME280;49531;-34.520;150.798;2023-06-22T01:26:43;100886.72;;;16.02;51.32
63395;BME280;49531;-34.520;150.798;2023-06-22T01:29:19;100879.69;;;16.01;51.35
63395;BME280;49531;-34.520;150.798;2023-06-22T01:31:48;100874.19;;;15.96;51.31
63395;BME280;49531;-34.520;150.798;2023-06-22T01:34:16;100867.72;;;15.97;50.99
63395;BME280;49531;-34.520;150.798;2023-06-22T01:36:44;100865.16;;;16.02;51.04
63395;BME280;49531;-34.520;150.798;2023-06-22T01:39:13;100840.78;;;15.97;51.23
63395;BME280;49531;-34.520;150.798;2023-06-22T01:41:42;100857.72;;;16.16;51.67
63395;BME280;49531;-34.520;150.798;2023-06-22T01:44:09;100831.94;;;16.09;51.65
63395;BME280;49531;-34.520;150.798;2023-06-22T01:46:37;100850.31;;;16.30;52.28
63395;BME280;49531;-34.520;150.798;2023-06-22T01:49:05;100844.91;;;16.30;52.52
63395;BME280;49531;-34.520;150.798;2023-06-22T01:51:33;100830.84;;;16.28;52.30
63395;BME280;49531;-34.520;150.798;2023-06-22T01:54:01;100828.06;;;16.34;52.57
63395;BME280;49531;-34.520;150.798;2023-06-22T01:56:29;100810.09;;;16.28;52.24
63395;BME280;49531;-34.520;150.798;2023-06-22T01:59:04;100813.03;;;16.27;52.20
63395;BME280;49531;-34.520;150.798;2023-06-22T02:01:42;100799.53;;;16.27;52.68
63395;BME280;49531;-34.520;150.798;2023-06-22T02:04:16;100823.13;;;16.43;52.54
63395;BME280;49531;-34.520;150.798;2023-06-22T02:06:47;100812.94;;;16.45;52.72
63395;BME280;49531;-34.520;150.798;2023-06-22T02:09:18;100808.97;;;16.36;52.44
63395;BME280;49531;-34.520;150.798;2023-06-22T02:11:48;100824.66;;;16.39;52.20
63395;BME280;49531;-34.520;150.798;2023-06-22T02:14:20;100822.75;;;16.40;52.46
63395;BME280;49531;-34.520;150.798;2023-06-22T02:16:47;100796.16;;;16.31;52.15
63395;BME280;49531;-34.520;150.798;2023-06-22T02:19:15;100805.81;;;16.39;52.07
63395;BME280;49531;-34.520;150.798;2023-06-22T02:21:45;100806.72;;;16.45;51.94
63395;BME280;49531;-34.520;150.798;2023-06-22T02:24:12;100801.69;;;16.37;52.09
63395;BME280;49531;-34.520;150.798;2023-06-22T02:26:39;100808.81;;;16.43;51.61
63395;BME280;49531;-34.520;150.798;2023-06-22T02:29:08;100806.13;;;16.43;51.40
63395;BME280;49531;-34.520;150.798;2023-06-22T02:31:35;100796.75;;;16.45;51.57
63395;BME280;49531;-34.520;150.798;2023-06-22T02:34:03;100788.31;;;16.42;51.18
63395;BME280;49531;-34.520;150.798;2023-06-22T02:36:30;100794.88;;;16.46;51.30
63395;BME280;49531;-34.520;150.798;2023-06-22T02:38:58;100780.34;;;16.47;51.15
63395;BME280;49531;-34.520;150.798;2023-06-22T02:41:28;100773.69;;;16.49;50.90
63395;BME280;49531;-34.520;150.798;2023-06-22T02:43:55;100763.94;;;16.48;51.15
63395;BME280;49531;-34.520;150.798;2023-06-22T02:46:22;100746.50;;;16.51;51.22
63395;BME280;49531;-34.520;150.798;2023-06-22T02:48:49;100737.81;;;16.49;50.97
63395;BME280;49531;-34.520;150.798;2023-06-22T02:51:17;100735.84;;;16.56;50.98
63395;BME280;49531;-34.520;150.798;2023-06-22T02:53:44;100733.50;;;16.59;51.52
63395;BME280;49531;-34.520;150.798;2023-06-22T02:56:11;100723.28;;;16.61;51.39
63395;BME280;49531;-34.520;150.798;2023-06-22T02:58:39;100718.50;;;16.63;51.40
63395;BME280;49531;-34.520;150.798;2023-06-22T03:01:07;100719.09;;;16.65;51.55
63395;BME280;49531;-34.520;150.798;2023-06-22T03:03:34;100706.75;;;16.58;51.73
63395;BME280;49531;-34.520;150.798;2023-06-22T03:06:01;100708.31;;;16.65;51.68
63395;BME280;49531;-34.520;150.798;2023-06-22T03:08:28;100687.56;;;16.66;51.40
63395;BME280;49531;-34.520;150.798;2023-06-22T03:10:56;100691.09;;;16.66;51.24
63395;BME280;49531;-34.520;150.798;2023-06-22T03:13:24;100684.06;;;16.65;51.33
63395;BME280;49531;-34.520;150.798;2023-06-22T03:15:51;100679.94;;;16.75;51.44
63395;BME280;49531;-34.520;150.798;2023-06-22T03:18:18;100646.97;;;16.61;51.38
63395;BME280;49531;-34.520;150.798;2023-06-22T03:20:48;100659.19;;;16.75;51.50
63395;BME280;49531;-34.520;150.798;2023-06-22T03:23:15;100643.97;;;16.69;51.55
63395;BME280;49531;-34.520;150.798;2023-06-22T03:25:43;100645.94;;;16.74;51.63
63395;BME280;49531;-34.520;150.798;2023-06-22T03:28:11;100643.84;;;16.76;51.61
63395;BME280;49531;-34.520;150.798;2023-06-22T03:30:38;100647.34;;;16.76;51.34
63395;BME280;49531;-34.520;150.798;2023-06-22T03:33:05;100615.91;;;16.58;51.52
63395;BME280;49531;-34.520;150.798;2023-06-22T03:35:32;100654.22;;;16.84;51.56
63395;BME280;49531;-34.520;150.798;2023-06-22T03:37:59;100640.41;;;16.80;51.38
63395;BME280;49531;-34.520;150.798;2023-06-22T03:40:26;100631.25;;;16.81;51.39
63395;BME280;49531;-34.520;150.798;2023-06-22T03:42:55;100639.44;;;16.86;51.35
63395;BME280;49531;-34.520;150.798;2023-06-22T03:45:22;100638.50;;;16.92;51.25
63395;BME280;49531;-34.520;150.798;2023-06-22T03:47:49;100630.53;;;16.86;51.26
63395;BME280;49531;-34.520;150.798;2023-06-22T03:50:16;100635.56;;;16.94;51.28
63395;BME280;49531;-34.520;150.798;2023-06-22T03:52:46;100635.56;;;16.94;51.31
63395;BME280;49531;-34.520;150.798;2023-06-22T03:55:14;100628.28;;;16.94;51.14
63395;BME280;49531;-34.520;150.798;2023-06-22T03:57:41;100628.63;;;16.98;51.10
63395;BME280;49531;-34.520;150.798;2023-06-22T04:00:09;100629.22;;;17.00;51.43
63395;BME280;49531;-34.520;150.798;2023-06-22T04:02:36;100629.22;;;17.00;51.34
63395;BME280;49531;-34.520;150.798;2023-06-22T04:05:04;100620.53;;;16.98;51.51
63395;BME280;49531;-34.520;150.798;2023-06-22T04:07:31;100632.50;;;17.02;51.67
63395;BME280;49531;-34.520;150.798;2023-06-22T04:09:58;100638.00;;;17.07;51.59
63395;BME280;49531;-34.520;150.798;2023-06-22T04:12:25;100637.19;;;17.07;51.49
63395;BME280;49531;-34.520;150.798;2023-06-22T04:14:53;100632.50;;;17.02;51.44
63395;BME280;49531;-34.520;150.798;2023-06-22T04:17:20;100591.13;;;16.85;51.67
63395;BME280;49531;-34.520;150.798;2023-06-22T04:19:47;100625.94;;;16.98;51.79
63395;BME280;49531;-34.520;150.798;2023-06-22T04:22:14;100632.84;;;17.06;52.02
63395;BME280;49531;-34.520;150.798;2023-06-22T04:24:41;100627.00;;;16.97;52.34
63395;BME280;49531;-34.520;150.798;2023-06-22T04:27:08;100631.44;;;17.03;52.00
63395;BME280;49531;-34.520;150.798;2023-06-22T04:29:35;100630.97;;;17.06;51.99
63395;BME280;49531;-34.520;150.798;2023-06-22T04:32:03;100631.56;;;17.08;52.30
63395;BME280;49531;-34.520;150.798;2023-06-22T04:34:31;100636.47;;;17.11;52.16
63395;BME280;49531;-34.520;150.798;2023-06-22T04:36:58;100632.38;;;17.09;52.20
63395;BME280;49531;-34.520;150.798;2023-06-22T04:39:25;100634.34;;;17.13;52.13
63395;BME280;49531;-34.520;150.798;2023-06-22T04:41:53;100628.63;;;17.10;52.02
63395;BME280;49531;-34.520;150.798;2023-06-22T04:44:26;100625.84;;;17.21;51.94
63395;BME280;49531;-34.520;150.798;2023-06-22T04:46:57;100598.22;;;17.14;51.59
63395;BME280;49531;-34.520;150.798;2023-06-22T04:49:30;100612.28;;;17.16;50.87
63395;BME280;49531;-34.520;150.798;2023-06-22T04:52:00;100629.34;;;17.33;51.25
63395;BME280;49531;-34.520;150.798;2023-06-22T04:54:27;100621.44;;;17.15;51.48
63395;BME280;49531;-34.520;150.798;2023-06-22T04:56:54;100631.00;;;17.23;51.66
63395;BME280;49531;-34.520;150.798;2023-06-22T04:59:23;100617.69;;;17.16;52.32
63395;BME280;49531;-34.520;150.798;2023-06-22T05:01:55;100610.88;;;17.14;52.44
63395;BME280;49531;-34.520;150.798;2023-06-22T05:04:23;100599.84;;;17.15;52.37
63395;BME280;49531;-34.520;150.798;2023-06-22T05:06:51;100574.31;;;17.06;52.05
63395;BME280;49531;-34.520;150.798;2023-06-22T05:09:19;100609.34;;;17.18;52.10
63395;BME280;49531;-34.520;150.798;2023-06-22T05:11:46;100602.97;;;17.24;51.96
63395;BME280;49531;-34.520;150.798;2023-06-22T05:14:13;100584.97;;;17.13;51.86
63395;BME280;49531;-34.520;150.798;2023-06-22T05:16:42;100610.47;;;17.22;51.76
63395;BME280;49531;-34.520;150.798;2023-06-22T05:19:09;100610.66;;;17.15;51.83
63395;BME280;49531;-34.520;150.798;2023-06-22T05:21:36;100605.38;;;17.09;51.74
63395;BME280;49531;-34.520;150.798;2023-06-22T05:24:04;100601.88;;;17.08;51.82
63395;BME280;49531;-34.520;150.798;2023-06-22T05:26:33;100611.38;;;17.11;51.99
63395;BME280;49531;-34.520;150.798;2023-06-22T05:29:02;100618.63;;;17.10;51.82
63395;BME280;49531;-34.520;150.798;2023-06-22T05:31:29;100615.84;;;17.05;51.79
63395;BME280;49531;-34.520;150.798;2023-06-22T05:33:57;100617.00;;;17.09;51.56
63395;BME280;49531;-34.520;150.798;2023-06-22T05:36:24;100624.03;;;17.10;51.41
63395;BME280;49531;-34.520;150.798;2023-06-22T05:38:52;100616.53;;;17.12;51.33
63395;BME280;49531;-34.520;150.798;2023-06-22T05:41:19;100615.13;;;17.10;51.07
63395;BME280;49531;-34.520;150.798;2023-06-22T05:43:46;100616.53;;;17.12;50.94
63395;BME280;49531;-34.520;150.798;2023-06-22T05:46:13;100608.81;;;17.04;51.05
63395;BME280;49531;-34.520;150.798;2023-06-22T05:48:41;100630.00;;;17.12;51.16
63395;BME280;49531;-34.520;150.798;2023-06-22T05:51:08;100614.53;;;17.08;51.08
63395;BME280;49531;-34.520;150.798;2023-06-22T05:53:35;100634.94;;;17.15;50.96
63395;BME280;49531;-34.520;150.798;2023-06-22T05:56:02;100632.47;;;17.14;51.12
63395;BME280;49531;-34.520;150.798;2023-06-22T05:58:30;100622.50;;;17.14;50.94
63395;BME280;49531;-34.520;150.798;2023-06-22T06:00:57;100626.59;;;17.17;50.63
63395;BME280;49531;-34.520;150.798;2023-06-22T06:03:25;100622.84;;;17.18;50.72
63395;BME280;49531;-34.520;150.798;2023-06-22T06:05:54;100600.25;;;16.95;50.57
63395;BME280;49531;-34.520;150.798;2023-06-22T06:08:22;100626.84;;;17.15;50.67
63395;BME280;49531;-34.520;150.798;2023-06-22T06:10:49;100633.63;;;17.18;50.63
63395;BME280;49531;-34.520;150.798;2023-06-22T06:13:16;100629.13;;;17.23;50.45
63395;BME280;49531;-34.520;150.798;2023-06-22T06:15:43;100637.91;;;17.30;51.16
63395;BME280;49531;-34.520;150.798;2023-06-22T06:18:11;100614.09;;;17.27;51.31
63395;BME280;49531;-34.520;150.798;2023-06-22T06:20:38;100623.22;;;17.38;51.35
63395;BME280;49531;-34.520;150.798;2023-06-22T06:23:05;100619.56;;;17.44;51.55
63395;BME280;49531;-34.520;150.798;2023-06-22T06:25:32;100617.75;;;17.50;51.54
63395;BME280;49531;-34.520;150.798;2023-06-22T06:27:59;100612.94;;;17.52;51.43
63395;BME280;49531;-34.520;150.798;2023-06-22T06:30:26;100609.00;;;17.43;53.28
63395;BME280;49531;-34.520;150.798;2023-06-22T06:32:53;100606.09;;;17.32;52.05
63395;BME280;49531;-34.520;150.798;2023-06-22T06:35:21;100618.38;;;17.40;52.73
63395;BME280;49531;-34.520;150.798;2023-06-22T06:37:50;100608.75;;;17.44;52.82
63395;BME280;49531;-34.520;150.798;2023-06-22T06:40:18;100611.88;;;17.53;52.51
63395;BME280;49531;-34.520;150.798;2023-06-22T06:42:47;100615.66;;;17.52;52.40
63395;BME280;49531;-34.520;150.798;2023-06-22T06:45:18;100598.88;;;17.50;52.47
63395;BME280;49531;-34.520;150.798;2023-06-22T06:47:46;100602.22;;;17.57;52.45
63395;BME280;49531;-34.520;150.798;2023-06-22T06:50:14;100585.22;;;17.56;52.65
63395;BME280;49531;-34.520;150.798;2023-06-22T06:52:41;100586.66;;;17.64;52.47
63395;BME280;49531;-34.520;150.798;2023-06-22T06:55:09;100580.00;;;17.66;52.29
63395;BME280;49531;-34.520;150.798;2023-06-22T06:57:38;100588.19;;;17.72;52.14
63395;BME280;49531;-34.520;150.798;2023-06-22T07:00:08;100589.25;;;17.71;52.00
63395;BME280;49531;-34.520;150.798;2023-06-22T07:02:39;100589.00;;;17.72;51.96
63395;BME280;49531;-34.520;150.798;2023-06-22T07:05:08;100584.66;;;17.71;52.18
63395;BME280;49531;-34.520;150.798;2023-06-22T07:07:35;100589.97;;;17.66;52.19
63395;BME280;49531;-34.520;150.798;2023-06-22T07:10:04;100589.72;;;17.67;52.14
63395;BME280;49531;-34.520;150.798;2023-06-22T07:12:31;100581.97;;;17.71;52.03
63395;BME280;49531;-34.520;150.798;2023-06-22T07:15:05;100587.41;;;17.59;52.11
63395;BME280;49531;-34.520;150.798;2023-06-22T07:17:34;100593.09;;;17.75;51.91
63395;BME280;49531;-34.520;150.798;2023-06-22T07:20:03;100585.72;;;17.70;52.04
63395;BME280;49531;-34.520;150.798;2023-06-22T07:22:35;100583.13;;;17.75;51.90
63395;BME280;49531;-34.520;150.798;2023-06-22T07:25:02;100583.13;;;17.75;51.89
63395;BME280;49531;-34.520;150.798;2023-06-22T07:27:39;100571.16;;;17.71;51.84
63395;BME280;49531;-34.520;150.798;2023-06-22T07:30:09;100565.59;;;17.78;51.49
63395;BME280;49531;-34.520;150.798;2023-06-22T07:32:37;100558.22;;;17.73;51.75
63395;BME280;49531;-34.520;150.798;2023-06-22T07:35:04;100546.88;;;17.59;51.88
63395;BME280;49531;-34.520;150.798;2023-06-22T07:37:33;100565.19;;;17.69;52.17
63395;BME280;49531;-34.520;150.798;2023-06-22T07:40:01;100564.94;;;17.71;51.91
63395;BME280;49531;-34.520;150.798;2023-06-22T07:42:32;100562.31;;;17.59;51.84
63395;BME280;49531;-34.520;150.798;2023-06-22T07:44:59;100578.69;;;17.69;51.95
63395;BME280;49531;-34.520;150.798;2023-06-22T07:47:28;100578.09;;;17.67;51.83
63395;BME280;49531;-34.520;150.798;2023-06-22T07:49:57;100587.28;;;17.66;51.84
63395;BME280;49531;-34.520;150.798;2023-06-22T07:52:28;100560.56;;;17.53;52.00
63395;BME280;49531;-34.520;150.798;2023-06-22T07:54:55;100582.31;;;17.63;51.98
63395;BME280;49531;-34.520;150.798;2023-06-22T07:57:22;100590.19;;;17.64;51.89
63395;BME280;49531;-34.520;150.798;2023-06-22T07:59:49;100588.09;;;17.66;51.59
63395;BME280;49531;-34.520;150.798;2023-06-22T08:02:17;100586.66;;;17.64;51.76
63395;BME280;49531;-34.520;150.798;2023-06-22T08:04:44;100570.94;;;17.61;52.48
63395;BME280;49531;-34.520;150.798;2023-06-22T08:07:12;100566.72;;;17.48;54.83
63395;BME280;49531;-34.520;150.798;2023-06-22T08:09:47;100579.78;;;17.40;55.93
63395;BME280;49531;-34.520;150.798;2023-06-22T08:12:15;100566.34;;;17.28;56.28
63395;BME280;49531;-34.520;150.798;2023-06-22T08:14:43;100572.38;;;17.18;57.75
63395;BME280;49531;-34.520;150.798;2023-06-22T08:17:12;100557.28;;;17.06;58.39
63395;BME280;49531;-34.520;150.798;2023-06-22T08:19:40;100539.13;;;17.01;57.86
63395;BME280;49531;-34.520;150.798;2023-06-22T08:22:07;100549.69;;;17.03;58.13
63395;BME280;49531;-34.520;150.798;2023-06-22T08:24:35;100554.50;;;17.00;58.54
63395;BME280;49531;-34.520;150.798;2023-06-22T08:27:02;100562.22;;;17.09;57.96
63395;BME280;49531;-34.520;150.798;2023-06-22T08:29:29;100546.75;;;17.04;58.45
63395;BME280;49531;-34.520;150.798;2023-06-22T08:31:56;100523.69;;;16.85;58.85
63395;BME280;49531;-34.520;150.798;2023-06-22T08:34:23;100533.31;;;16.81;59.51
63395;BME280;49531;-34.520;150.798;2023-06-22T08:36:54;100535.03;;;16.47;59.71
63395;BME280;49531;-34.520;150.798;2023-06-22T08:39:22;100558.00;;;16.49;60.08
63395;BME280;49531;-34.520;150.798;2023-06-22T08:41:49;100555.69;;;16.41;60.11
63395;BME280;49531;-34.520;150.798;2023-06-22T08:44:18;100572.81;;;16.35;60.65
63395;BME280;49531;-34.520;150.798;2023-06-22T08:46:46;100573.75;;;16.29;60.43
63395;BME280;49531;-34.520;150.798;2023-06-22T08:49:13;100546.94;;;16.22;60.89
63395;BME280;49531;-34.520;150.798;2023-06-22T08:51:40;100524.66;;;16.15;60.88
63395;BME280;49531;-34.520;150.798;2023-06-22T08:54:07;100543.66;;;16.20;61.02
63395;BME280;49531;-34.520;150.798;2023-06-22T08:56:35;100545.41;;;16.15;60.86
63395;BME280;49531;-34.520;150.798;2023-06-22T08:59:02;100536.03;;;16.06;61.50
63395;BME280;49531;-34.520;150.798;2023-06-22T09:01:29;100547.75;;;15.99;61.73
63395;BME280;49531;-34.520;150.798;2023-06-22T09:03:56;100554.56;;;15.90;62.48
63395;BME280;49531;-34.520;150.798;2023-06-22T09:06:24;100539.31;;;15.84;61.89
63395;BME280;49531;-34.520;150.798;2023-06-22T09:08:54;100560.16;;;16.00;61.91
63395;BME280;49531;-34.520;150.798;2023-06-22T09:11:22;100551.75;;;15.85;61.54
63395;BME280;49531;-34.520;150.798;2023-06-22T09:13:49;100546.22;;;15.80;61.74
63395;BME280;49531;-34.520;150.798;2023-06-22T09:16:17;100540.16;;;15.85;61.94
63395;BME280;49531;-34.520;150.798;2023-06-22T09:18:47;100534.41;;;15.81;62.08
63395;BME280;49531;-34.520;150.798;2023-06-22T09:21:14;100500.88;;;15.54;62.35
63395;BME280;49531;-34.520;150.798;2023-06-22T09:23:41;100519.97;;;15.64;61.89
63395;BME280;49531;-34.520;150.798;2023-06-22T09:26:10;100501.59;;;15.61;62.02
63395;BME280;49531;-34.520;150.798;2023-06-22T09:28:37;100493.88;;;15.64;61.58
63395;BME280;49531;-34.520;150.798;2023-06-22T09:31:04;100490.84;;;15.73;61.92
63395;BME280;49531;-34.520;150.798;2023-06-22T09:33:31;100480.06;;;15.61;62.11
63395;BME280;49531;-34.520;150.798;2023-06-22T09:35:58;100491.66;;;15.61;61.86
63395;BME280;49531;-34.520;150.798;2023-06-22T09:38:25;100460.38;;;15.49;62.07
63395;BME280;49531;-34.520;150.798;2023-06-22T09:40:52;100476.69;;;15.65;62.01
63395;BME280;49531;-34.520;150.798;2023-06-22T09:43:20;100457.25;;;15.75;61.91
63395;BME280;49531;-34.520;150.798;2023-06-22T09:45:47;100456.91;;;15.83;61.88
63395;BME280;49531;-34.520;150.798;2023-06-22T09:48:14;100437.47;;;15.81;62.00
63395;BME280;49531;-34.520;150.798;2023-06-22T09:50:41;100458.53;;;15.96;61.66
63395;BME280;49531;-34.520;150.798;2023-06-22T09:53:08;100467.78;;;15.88;61.97
63395;BME280;49531;-34.520;150.798;2023-06-22T09:55:35;100478.66;;;15.70;61.99
63395;BME280;49531;-34.520;150.798;2023-06-22T09:58:03;100489.69;;;15.57;61.80
63395;BME280;49531;-34.520;150.798;2023-06-22T10:00:30;100477.91;;;15.40;62.12
63395;BME280;49531;-34.520;150.798;2023-06-22T10:02:57;100460.81;;;15.22;62.36
63395;BME280;49531;-34.520;150.798;2023-06-22T10:05:24;100487.16;;;15.44;61.83
63395;BME280;49531;-34.520;150.798;2023-06-22T10:07:52;100470.31;;;15.37;61.94
63395;BME280;49531;-34.520;150.798;2023-06-22T10:10:19;100480.81;;;15.26;62.21
63395;BME280;49531;-34.520;150.798;2023-06-22T10:12:54;100487.84;;;15.16;63.09
63395;BME280;49531;-34.520;150.798;2023-06-22T10:15:21;100472.06;;;15.19;62.87
63395;BME280;49531;-34.520;150.798;2023-06-22T10:17:49;100451.81;;;15.17;62.14
63395;BME280;49531;-34.520;150.798;2023-06-22T10:20:16;100462.09;;;15.20;62.93
63395;BME280;49531;-34.520;150.798;2023-06-22T10:22:45;100449.72;;;15.19;63.09
63395;BME280;49531;-34.520;150.798;2023-06-22T10:25:13;100425.00;;;15.10;62.67
63395;BME280;49531;-34.520;150.798;2023-06-22T10:27:40;100434.72;;;15.23;62.35
63395;BME280;49531;-34.520;150.798;2023-06-22T10:30:10;100411.56;;;15.10;62.63
63395;BME280;49531;-34.520;150.798;2023-06-22T10:32:39;100433.69;;;15.12;62.53
63395;BME280;49531;-34.520;150.798;2023-06-22T10:35:07;100443.47;;;15.07;62.83
63395;BME280;49531;-34.520;150.798;2023-06-22T10:37:34;100415.38;;;14.91;62.42
63395;BME280;49531;-34.520;150.798;2023-06-22T10:40:02;100436.47;;;15.06;61.93
63395;BME280;49531;-34.520;150.798;2023-06-22T10:42:30;100431.00;;;15.12;61.43
63395;BME280;49531;-34.520;150.798;2023-06-22T10:44:57;100435.44;;;15.18;61.59
63395;BME280;49531;-34.520;150.798;2023-06-22T10:47:24;100426.88;;;15.10;62.02
63395;BME280;49531;-34.520;150.798;2023-06-22T10:49:51;100388.59;;;14.84;62.56
63395;BME280;49531;-34.520;150.798;2023-06-22T10:52:18;100394.69;;;14.91;62.86
63395;BME280;49531;-34.520;150.798;2023-06-22T10:54:45;100389.66;;;14.95;63.04
63395;BME280;49531;-34.520;150.798;2023-06-22T10:57:13;100391.88;;;14.86;63.20
63395;BME280;49531;-34.520;150.798;2023-06-22T10:59:41;100387.06;;;14.77;63.40
63395;BME280;49531;-34.520;150.798;2023-06-22T11:02:08;100371.41;;;14.74;63.48
63395;BME280;49531;-34.520;150.798;2023-06-22T11:04:35;100368.25;;;14.77;63.89
63395;BME280;49531;-34.520;150.798;2023-06-22T11:07:02;100370.47;;;14.80;63.34
63395;BME280;49531;-34.520;150.798;2023-06-22T11:09:30;100355.41;;;14.79;63.16
63395;BME280;49531;-34.520;150.798;2023-06-22T11:11:57;100326.38;;;14.81;62.96
63395;BME280;49531;-34.520;150.798;2023-06-22T11:14:26;100318.91;;;14.83;62.67
63395;BME280;49531;-34.520;150.798;2023-06-22T11:16:53;100318.13;;;14.94;62.28
63395;BME280;49531;-34.520;150.798;2023-06-22T11:19:20;100294.72;;;14.94;61.89
63395;BME280;49531;-34.520;150.798;2023-06-22T11:21:47;100308.53;;;14.98;61.74
63395;BME280;49531;-34.520;150.798;2023-06-22T11:24:14;100318.13;;;14.94;61.73
63395;BME280;49531;-34.520;150.798;2023-06-22T11:26:42;100318.56;;;14.91;61.40
63395;BME280;49531;-34.520;150.798;2023-06-22T11:29:09;100332.28;;;15.01;61.43
63395;BME280;49531;-34.520;150.798;2023-06-22T11:31:36;100324.31;;;15.06;61.43
63395;BME280;49531;-34.520;150.798;2023-06-22T11:34:04;100318.25;;;15.11;61.61
63395;BME280;49531;-34.520;150.798;2023-06-22T11:36:31;100295.22;;;15.03;61.56
63395;BME280;49531;-34.520;150.798;2023-06-22T11:38:59;100305.16;;;15.02;61.72
63395;BME280;49531;-34.520;150.798;2023-06-22T11:41:26;100316.16;;;15.13;61.97
63395;BME280;49531;-34.520;150.798;2023-06-22T11:43:53;100318.25;;;15.11;61.89
63395;BME280;49531;-34.520;150.798;2023-06-22T11:46:20;100333.09;;;15.13;62.07
63395;BME280;49531;-34.520;150.798;2023-06-22T11:48:47;100318.38;;;15.16;61.84
63395;BME280;49531;-34.520;150.798;2023-06-22T11:51:14;100327.13;;;15.23;61.60
63395;BME280;49531;-34.520;150.798;2023-06-22T11:53:41;100307.59;;;15.04;61.61
63395;BME280;49531;-34.520;150.798;2023-06-22T11:56:08;100323.16;;;15.14;61.53
63395;BME280;49531;-34.520;150.798;2023-06-22T11:58:36;100321.53;;;15.13;61.62
63395;BME280;49531;-34.520;150.798;2023-06-22T12:01:03;100310.28;;;15.04;61.56
63395;BME280;49531;-34.520;150.798;2023-06-22T12:03:31;100322.81;;;15.10;61.28
63395;BME280;49531;-34.520;150.798;2023-06-22T12:05:59;100318.81;;;15.24;60.90
63395;BME280;49531;-34.520;150.798;2023-06-22T12:08:26;100299.91;;;15.19;60.99
63395;BME280;49531;-34.520;150.798;2023-06-22T12:10:53;100297.19;;;15.19;61.04
63395;BME280;49531;-34.520;150.798;2023-06-22T12:13:20;100285.16;;;15.10;61.27
63395;BME280;49531;-34.520;150.798;2023-06-22T12:15:48;100265.75;;;15.08;61.75
63395;BME280;49531;-34.520;150.798;2023-06-22T12:18:15;100272.75;;;15.09;61.75
63395;BME280;49531;-34.520;150.798;2023-06-22T12:20:43;100273.69;;;15.15;61.71
63395;BME280;49531;-34.520;150.798;2023-06-22T12:23:11;100268.53;;;15.13;61.50
63395;BME280;49531;-34.520;150.798;2023-06-22T12:25:38;100261.59;;;15.29;61.11
63395;BME280;49531;-34.520;150.798;2023-06-22T12:28:05;100261.94;;;15.32;60.96